Time;durP1;ratioP1;P1;durP2;ratioP2;P2;SDS_P1;SDS_P2;PMS_P1;PMS_P2;Temp;Humidity;BMP_temperature;BMP_pressure;BME280_temperature;BME280_humidity;BME280_pressure;Samples;Min_cycle;Max_cycle;Signal;HPM_P1;HPM_P2
2021/11/09 00:00:36;;;;;;;12.37;7.20;;;7.70;99.90;;;;;;4366963;32;20086;-65
2021/11/09 00:03:06;;;;;;;10.02;6.60;;;7.80;99.90;;;;;;4391914;32;20089;-65
2021/11/09 00:05:33;;;;;;;9.82;6.87;;;7.80;99.90;;;;;;4355764;32;20105;-65
2021/11/09 00:08:07;;;;;;;11.63;6.82;;;7.70;99.90;;;;;;4391922;32;20085;-64
2021/11/09 00:10:34;;;;;;;9.98;6.53;;;7.70;99.90;;;;;;4368895;32;20511;-65
2021/11/09 00:13:03;;;;;;;10.95;6.82;;;7.70;99.90;;;;;;4391871;32;20182;-65
2021/11/09 00:15:43;;;;;;;14.32;6.82;;;7.80;99.90;;;;;;3857172;37;20070;-64
2021/11/09 00:18:11;;;;;;;12.35;6.78;;;7.70;99.90;;;;;;4406080;32;20085;-63
2021/11/09 00:20:39;;;;;;;11.52;7.10;;;7.70;99.90;;;;;;4380735;32;20132;-64
2021/11/09 00:23:05;;;;;;;9.52;6.57;;;7.70;99.90;;;;;;4405674;32;20065;-65
2021/11/09 00:25:32;;;;;;;11.00;6.78;;;7.70;99.90;;;;;;4380857;32;20096;-65
2021/11/09 00:27:59;;;;;;;10.85;7.43;;;7.60;99.90;;;;;;4382585;32;20089;-65
2021/11/09 00:30:26;;;;;;;11.75;7.12;;;7.40;99.90;;;;;;4393843;32;20069;-64
2021/11/09 00:32:53;;;;;;;12.45;6.97;;;7.20;99.90;;;;;;4380916;32;20510;-64
2021/11/09 00:35:22;;;;;;;10.90;7.00;;;7.10;99.90;;;;;;4405785;32;20085;-64
2021/11/09 00:37:49;;;;;;;11.43;6.80;;;7.30;99.90;;;;;;4393292;32;20095;-65
2021/11/09 00:40:17;;;;;;;11.55;7.32;;;7.40;99.90;;;;;;4378059;32;20195;-64
2021/11/09 00:42:44;;;;;;;10.40;7.07;;;7.40;99.90;;;;;;4390703;32;20142;-65
2021/11/09 00:45:11;;;;;;;10.05;6.80;;;7.50;99.90;;;;;;4378289;32;20081;-64
2021/11/09 00:47:38;;;;;;;9.30;6.78;;;7.50;99.90;;;;;;4382062;32;20439;-64
2021/11/09 00:50:06;;;;;;;10.43;7.25;;;7.50;99.90;;;;;;4395726;32;20491;-66
2021/11/09 00:52:33;;;;;;;10.95;7.37;;;7.50;99.90;;;;;;4378066;32;20081;-66
2021/11/09 00:55:00;;;;;;;10.65;6.90;;;7.40;99.90;;;;;;4390501;32;20070;-64
2021/11/09 00:57:27;;;;;;;11.57;7.62;;;7.30;99.90;;;;;;4390298;32;20080;-64
2021/11/09 00:59:53;;;;;;;12.20;8.30;;;7.30;99.90;;;;;;4402759;32;20073;-65
2021/11/09 01:02:20;;;;;;;11.20;6.93;;;7.30;99.90;;;;;;4364810;32;20074;-65
2021/11/09 01:04:46;;;;;;;11.57;7.45;;;7.40;99.90;;;;;;4365239;32;20093;-66
2021/11/09 01:07:12;;;;;;;10.95;7.18;;;7.40;99.90;;;;;;4402603;32;20086;-66
2021/11/09 01:09:39;;;;;;;13.25;7.10;;;7.30;99.90;;;;;;4390101;32;20148;-65
2021/11/09 01:12:06;;;;;;;11.90;6.30;;;7.30;99.90;;;;;;4389793;32;20158;-66
2021/11/09 01:14:33;;;;;;;10.85;7.32;;;7.20;99.90;;;;;;4389923;32;20080;-65
2021/11/09 01:16:59;;;;;;;10.73;7.15;;;7.20;99.90;;;;;;4389805;32;20096;-64
2021/11/09 01:19:27;;;;;;;9.95;6.53;;;7.30;99.90;;;;;;4376702;32;20101;-66
2021/11/09 01:21:53;;;;;;;11.57;7.10;;;7.20;99.90;;;;;;4402673;32;20162;-65
2021/11/09 01:24:19;;;;;;;9.82;6.43;;;7.30;99.90;;;;;;4390168;32;20088;-65
2021/11/09 01:26:47;;;;;;;11.05;7.05;;;7.30;99.90;;;;;;4368704;32;20078;-64
2021/11/09 01:29:13;;;;;;;12.43;7.10;;;7.30;99.90;;;;;;4379835;32;20136;-65
2021/11/09 01:31:40;;;;;;;11.20;6.95;;;7.40;99.90;;;;;;4379566;32;20157;-66
2021/11/09 01:34:07;;;;;;;12.27;6.70;;;7.40;99.90;;;;;;4367715;32;20090;-64
2021/11/09 01:36:33;;;;;;;12.32;6.90;;;7.40;99.90;;;;;;4367211;32;20149;-64
2021/11/09 01:38:59;;;;;;;10.25;6.60;;;7.40;99.90;;;;;;4393583;32;20065;-66
2021/11/09 01:41:26;;;;;;;10.55;6.53;;;7.30;99.90;;;;;;4392018;32;20157;-65
2021/11/09 01:43:53;;;;;;;9.90;6.37;;;7.30;99.90;;;;;;4367491;32;20081;-64
2021/11/09 01:46:20;;;;;;;11.23;6.03;;;7.30;99.90;;;;;;4354602;32;20078;-64
2021/11/09 01:48:46;;;;;;;10.43;6.82;;;7.40;99.90;;;;;;4366780;32;20225;-65
2021/11/09 01:51:16;;;;;;;9.93;6.60;;;7.40;99.90;;;;;;4379451;32;20161;-63
2021/11/09 01:53:45;;;;;;;10.23;6.18;;;7.50;99.90;;;;;;4379726;32;20073;-65
2021/11/09 01:56:15;;;;;;;9.10;6.50;;;7.50;99.90;;;;;;4379554;32;20068;-65
2021/11/09 01:58:42;;;;;;;11.77;6.75;;;7.50;99.90;;;;;;4379375;32;20081;-66
2021/11/09 02:01:15;;;;;;;9.65;6.30;;;7.50;99.90;;;;;;4379802;32;20069;-65
2021/11/09 02:03:44;;;;;;;10.70;6.65;;;7.60;99.90;;;;;;4354621;32;20073;-65
2021/11/09 02:06:11;;;;;;;10.05;6.53;;;7.50;99.90;;;;;;4379578;32;20179;-64
2021/11/09 02:10:55;;;;;;;10.73;6.00;;;7.50;99.90;;;;;;3857176;37;20062;-65
2021/11/09 02:13:23;;;;;;;10.65;6.93;;;7.50;99.90;;;;;;4368866;32;20278;-64
2021/11/09 02:15:51;;;;;;;9.77;6.25;;;7.50;99.90;;;;;;4380932;32;20547;-65
2021/11/09 02:18:18;;;;;;;10.25;6.30;;;7.40;99.90;;;;;;4381063;32;20085;-65
2021/11/09 02:20:57;;;;;;;10.93;6.62;;;7.50;99.90;;;;;;4406158;32;20506;-65
2021/11/09 02:23:27;;;;;;;9.50;5.75;;;7.40;99.90;;;;;;4394112;32;20172;-64
2021/11/09 02:25:54;;;;;;;10.90;6.40;;;7.50;99.90;;;;;;4381091;32;20157;-64
2021/11/09 02:28:21;;;;;;;11.05;7.05;;;7.50;99.90;;;;;;4393427;32;20073;-64
2021/11/09 02:30:47;;;;;;;11.90;6.50;;;7.60;99.90;;;;;;4380456;32;20087;-65
2021/11/09 02:33:14;;;;;;;9.77;6.32;;;7.60;99.90;;;;;;4418236;32;20072;-65
2021/11/09 02:35:40;;;;;;;9.77;6.70;;;7.60;99.90;;;;;;4380722;32;20073;-65
2021/11/09 02:38:07;;;;;;;10.48;6.55;;;7.60;99.90;;;;;;4405181;32;20065;-65
2021/11/09 02:40:34;;;;;;;13.13;6.72;;;7.60;99.90;;;;;;4380720;32;20085;-66
2021/11/09 02:43:11;;;;;;;10.48;6.25;;;7.60;99.90;;;;;;4367836;32;20528;-65
2021/11/09 02:48:20;;;;;;;10.90;6.30;;;7.50;99.90;;;;;;4394823;32;20081;-65
2021/11/09 02:50:52;;;;;;;9.68;6.53;;;7.60;99.90;;;;;;4406201;32;20446;-66
2021/11/09 02:55:52;;;;;;;9.27;5.65;;;7.70;99.90;;;;;;4406164;32;20072;-64
2021/11/09 03:03:36;;;;;;;10.38;6.18;;;7.70;99.90;;;;;;4392622;32;20177;-66
2021/11/09 03:08:43;;;;;;;10.10;5.70;;;7.70;99.90;;;;;;4406614;32;20089;-66
2021/11/09 03:11:09;;;;;;;10.30;6.28;;;7.70;99.90;;;;;;4393835;32;20149;-65
2021/11/09 03:13:37;;;;;;;10.25;6.03;;;7.70;99.90;;;;;;4396519;32;20088;-64
2021/11/09 03:16:10;;;;;;;9.07;5.90;;;7.70;99.90;;;;;;4414260;32;20436;-64
2021/11/09 03:18:48;;;;;;;9.63;6.10;;;7.70;99.90;;;;;;4395655;32;20081;-64
2021/11/09 03:39:59;;;;;;;8.80;5.85;;;7.80;99.90;;;;;;4400230;32;20081;-64
2021/11/09 03:40:37;;;;;;;10.57;6.10;;;7.80;99.90;;;;;;4396649;32;20081;-65
2021/11/09 03:45:50;;;;;;;11.43;6.30;;;7.80;99.90;;;;;;4385599;32;20077;-65
2021/11/09 03:48:17;;;;;;;9.73;6.22;;;7.70;99.90;;;;;;4394139;32;20515;-64
2021/11/09 03:50:46;;;;;;;11.05;6.55;;;7.70;99.90;;;;;;4382075;32;20522;-65
2021/11/09 04:00:46;;;;;;;10.70;5.85;;;7.70;99.90;;;;;;4394920;32;20508;-63
2021/11/09 04:05:45;;;;;;;10.52;6.10;;;7.70;99.90;;;;;;4394673;32;20084;-65
2021/11/09 04:08:41;;;;;;;8.98;5.68;;;7.70;99.90;;;;;;4406808;32;20609;-65
2021/11/09 04:21:15;;;;;;;7.78;4.40;;;7.70;99.90;;;;;;4371369;32;20089;-65
2021/11/09 04:29:13;;;;;;;10.88;5.75;;;7.80;99.90;;;;;;4393324;32;20088;-66
2021/11/09 05:08:52;;;;;;;8.43;3.90;;;7.40;99.90;;;;;;4395543;32;20077;-65
2021/11/09 05:11:19;;;;;;;7.70;3.92;;;7.60;99.90;;;;;;4394266;32;20084;-64
2021/11/09 05:13:45;;;;;;;7.50;3.37;;;8.10;99.90;;;;;;4393458;32;20077;-65
2021/11/09 05:16:11;;;;;;;8.15;4.12;;;8.60;99.90;;;;;;4405462;32;20177;-64
2021/11/09 05:18:37;;;;;;;8.05;3.92;;;8.70;99.90;;;;;;4380669;32;20097;-65
2021/11/09 05:21:04;;;;;;;7.00;3.83;;;8.80;99.90;;;;;;4405972;32;20088;-65
2021/11/09 05:23:30;;;;;;;6.57;4.00;;;8.70;99.90;;;;;;4368557;32;20081;-65
2021/11/09 05:25:56;;;;;;;6.50;4.00;;;8.90;99.90;;;;;;4405808;32;20165;-65
2021/11/09 05:28:25;;;;;;;6.10;3.90;;;8.50;99.90;;;;;;4393525;32;20076;-66
2021/11/09 05:30:52;;;;;;;7.07;4.40;;;8.20;99.90;;;;;;4369275;32;20188;-65
2021/11/09 05:33:19;;;;;;;6.37;3.70;;;7.70;99.90;;;;;;4380730;32;20073;-65
2021/11/09 05:35:50;;;;;;;7.25;4.30;;;7.40;99.90;;;;;;4366894;32;20124;-64
2021/11/09 05:38:24;;;;;;;5.87;3.35;;;7.20;99.90;;;;;;4389920;32;20576;-63
2021/11/09 05:40:56;;;;;;;5.37;3.47;;;7.50;99.90;;;;;;4381180;32;20452;-65
2021/11/09 05:43:23;;;;;;;5.70;3.37;;;7.60;99.90;;;;;;4356842;32;20200;-65
2021/11/09 05:45:49;;;;;;;6.78;3.50;;;7.50;99.90;;;;;;4371681;32;20078;-66
2021/11/09 05:48:16;;;;;;;9.50;3.90;;;7.40;99.90;;;;;;4391265;32;20504;-62
2021/11/09 05:50:42;;;;;;;5.85;3.47;;;7.30;99.90;;;;;;4380390;32;20173;-62
2021/11/09 05:53:09;;;;;;;7.12;3.80;;;7.40;99.90;;;;;;4384087;32;20149;-61
2021/11/09 05:55:35;;;;;;;6.43;3.75;;;7.40;99.90;;;;;;4401608;32;20093;-61
2021/11/09 05:58:02;;;;;;;7.07;3.72;;;7.40;99.90;;;;;;4368569;32;20150;-62
2021/11/09 06:00:28;;;;;;;5.85;3.50;;;7.50;99.90;;;;;;4371156;32;20500;-62
2021/11/09 06:02:55;;;;;;;7.62;4.47;;;7.70;99.90;;;;;;4365049;32;20086;-63
2021/11/09 06:05:21;;;;;;;7.47;3.72;;;7.80;99.90;;;;;;4381121;32;20076;-63
2021/11/09 06:07:47;;;;;;;7.87;4.10;;;7.80;99.90;;;;;;4377752;32;20147;-63
2021/11/09 06:10:13;;;;;;;8.50;3.95;;;7.80;99.90;;;;;;4378877;32;20522;-62
2021/11/09 06:12:39;;;;;;;9.13;4.32;;;7.90;99.90;;;;;;4364768;32;20073;-62
2021/11/09 06:15:06;;;;;;;8.15;4.15;;;8.00;99.90;;;;;;4377276;32;20500;-63
2021/11/09 06:17:32;;;;;;;8.13;4.00;;;8.30;99.90;;;;;;4403556;32;20076;-62
2021/11/09 06:19:59;;;;;;;7.97;4.00;;;8.40;99.90;;;;;;4406535;32;20165;-64
2021/11/09 06:22:25;;;;;;;7.30;4.07;;;8.50;99.90;;;;;;4378774;32;20600;-63
2021/11/09 06:24:52;;;;;;;7.20;4.20;;;8.30;99.90;;;;;;4377959;32;20136;-64
2021/11/09 06:27:19;;;;;;;7.12;4.47;;;8.40;99.90;;;;;;4375241;32;20081;-63
2021/11/09 06:29:45;;;;;;;7.05;4.32;;;8.50;99.90;;;;;;4379036;32;20605;-61
2021/11/09 06:32:11;;;;;;;7.45;4.80;;;8.40;99.90;;;;;;4378867;32;20081;-64
2021/11/09 06:34:38;;;;;;;9.50;5.22;;;8.60;99.90;;;;;;4396864;32;20450;-62
2021/11/09 06:37:04;;;;;;;7.82;4.07;;;8.60;99.90;;;;;;4394633;32;20073;-62
2021/11/09 06:39:30;;;;;;;8.20;4.57;;;8.70;99.90;;;;;;4377367;32;20084;-61
2021/11/09 06:41:56;;;;;;;8.88;4.70;;;8.70;99.90;;;;;;4386568;32;20093;-62
2021/11/09 06:44:23;;;;;;;9.50;4.80;;;9.00;99.90;;;;;;4383293;32;20062;-61
2021/11/09 06:46:49;;;;;;;8.20;4.15;;;9.10;99.90;;;;;;4405383;32;20615;-65
2021/11/09 06:49:15;;;;;;;8.23;4.55;;;8.80;99.90;;;;;;4391320;32;20084;-64
2021/11/09 06:51:41;;;;;;;10.07;5.00;;;8.80;99.90;;;;;;4377775;32;20070;-66
2021/11/09 06:54:07;;;;;;;7.40;4.40;;;8.70;99.90;;;;;;4405061;32;20162;-66
2021/11/09 06:56:35;;;;;;;7.18;3.85;;;8.80;99.90;;;;;;4393697;32;20088;-62
2021/11/09 06:59:01;;;;;;;6.53;3.28;;;8.70;99.90;;;;;;4382623;32;20257;-62
2021/11/09 07:01:28;;;;;;;7.70;3.67;;;8.70;99.90;;;;;;4360403;32;20089;-63
2021/11/09 07:03:54;;;;;;;7.35;3.00;;;8.80;99.90;;;;;;4376904;32;20095;-62
2021/11/09 07:06:20;;;;;;;6.70;4.18;;;8.70;99.90;;;;;;4367713;32;20082;-63
2021/11/09 07:08:46;;;;;;;8.32;4.30;;;8.80;99.90;;;;;;4366891;32;20082;-60
2021/11/09 07:11:13;;;;;;;8.40;4.05;;;8.70;99.90;;;;;;4391633;32;20081;-62
2021/11/09 07:13:42;;;;;;;6.65;3.60;;;8.80;99.90;;;;;;4355094;32;20441;-64
2021/11/09 07:16:10;;;;;;;4.22;2.85;;;8.80;99.90;;;;;;4391399;32;20163;-63
2021/11/09 07:18:37;;;;;;;5.03;3.37;;;8.70;99.90;;;;;;4370782;32;20086;-63
2021/11/09 07:21:03;;;;;;;6.70;3.55;;;9.00;99.90;;;;;;4379344;32;20090;-64
2021/11/09 07:23:30;;;;;;;7.60;4.18;;;8.90;99.90;;;;;;4366362;32;20081;-62
2021/11/09 07:25:56;;;;;;;7.85;4.60;;;8.80;99.90;;;;;;4367206;32;20069;-63
2021/11/09 07:28:22;;;;;;;6.03;3.83;;;9.10;99.90;;;;;;4380812;32;20081;-62
2021/11/09 07:31:00;;;;;;;5.82;3.97;;;9.10;99.90;;;;;;4390553;32;20105;-61
2021/11/09 07:33:26;;;;;;;7.20;4.18;;;9.50;99.90;;;;;;4363373;32;20116;-62
2021/11/09 07:35:53;;;;;;;8.02;4.00;;;9.50;99.90;;;;;;4369209;32;20520;-60
2021/11/09 07:38:19;;;;;;;9.10;4.03;;;9.50;99.90;;;;;;4378313;32;20528;-61
2021/11/09 07:40:46;;;;;;;5.30;3.30;;;9.60;99.90;;;;;;4378690;32;20164;-61
2021/11/09 07:43:13;;;;;;;6.05;3.95;;;9.50;99.90;;;;;;4354204;32;20166;-61
2021/11/09 07:45:39;;;;;;;6.72;3.78;;;9.10;99.90;;;;;;4401139;32;20523;-60
2021/11/09 07:48:06;;;;;;;6.20;3.67;;;9.20;99.90;;;;;;4384907;32;20093;-63
2021/11/09 07:50:33;;;;;;;6.65;3.42;;;9.40;99.90;;;;;;4382333;32;20072;-64
2021/11/09 07:53:02;;;;;;;9.32;4.32;;;9.50;99.90;;;;;;4387090;32;20073;-64
2021/11/09 07:55:32;;;;;;;7.93;3.62;;;9.20;99.90;;;;;;4366290;32;20081;-63
2021/11/09 07:58:06;;;;;;;6.35;4.28;;;9.00;99.90;;;;;;4372453;32;20141;-63
2021/11/09 08:00:36;;;;;;;6.28;3.72;;;9.00;99.90;;;;;;4371447;32;20082;-64
2021/11/09 08:04:11;;;;;;;6.87;4.30;;;8.90;99.90;;;;;;4391514;32;20169;-63
2021/11/09 08:06:12;;;;;;;8.23;4.47;;;8.80;99.90;;;;;;4364003;32;20094;-62
2021/11/09 08:11:23;;;;;;;6.35;4.00;;;8.80;99.90;;;;;;4390449;32;20092;-63
2021/11/09 08:13:49;;;;;;;7.95;4.20;;;8.80;99.90;;;;;;4381336;32;20086;-62
2021/11/09 08:16:17;;;;;;;6.30;3.80;;;8.70;99.90;;;;;;4375389;32;20054;-62
2021/11/09 08:18:45;;;;;;;6.00;4.03;;;8.60;99.90;;;;;;4380905;32;20084;-63
2021/11/09 08:21:14;;;;;;;7.68;4.60;;;8.50;99.90;;;;;;4381299;32;20071;-59
2021/11/09 08:23:40;;;;;;;7.87;4.12;;;8.60;99.90;;;;;;4359614;32;20070;-61
2021/11/09 08:26:07;;;;;;;8.98;4.20;;;8.70;99.90;;;;;;4367607;32;20141;-63
2021/11/09 08:28:34;;;;;;;8.88;3.87;;;9.00;99.90;;;;;;4381565;32;20140;-61
2021/11/09 08:31:06;;;;;;;7.43;4.72;;;9.00;99.90;;;;;;4373475;32;20098;-62
2021/11/09 08:33:32;;;;;;;7.22;4.35;;;9.00;99.90;;;;;;4374522;32;20258;-62
2021/11/09 08:36:03;;;;;;;6.20;4.45;;;9.10;99.90;;;;;;4363114;32;20242;-62
2021/11/09 08:38:30;;;;;;;10.10;4.43;;;9.20;99.90;;;;;;4377486;32;20181;-63
2021/11/09 08:40:59;;;;;;;10.05;4.53;;;9.30;99.90;;;;;;4365893;32;20077;-63
2021/11/09 08:43:29;;;;;;;7.20;3.78;;;9.40;99.90;;;;;;4366713;32;20073;-63
2021/11/09 08:46:09;;;;;;;6.57;4.10;;;9.50;99.90;;;;;;4402966;32;20077;-62
2021/11/09 08:48:43;;;;;;;8.88;3.92;;;9.50;99.90;;;;;;4367311;32;20500;-62
2021/11/09 08:51:11;;;;;;;7.95;4.65;;;9.40;99.90;;;;;;4390911;32;20105;-63
2021/11/09 08:53:45;;;;;;;5.45;3.50;;;9.40;99.90;;;;;;4378398;32;20532;-62
2021/11/09 09:04:21;;;;;;;7.57;4.65;;;9.30;99.90;;;;;;4369469;32;20074;-63
2021/11/09 09:06:55;;;;;;;6.93;3.83;;;9.30;99.90;;;;;;4365779;32;20077;-62
2021/11/09 09:09:22;;;;;;;7.07;4.03;;;9.30;99.90;;;;;;4390236;32;20141;-62
2021/11/09 09:11:49;;;;;;;5.82;3.62;;;9.30;99.90;;;;;;4377881;32;20441;-62
2021/11/09 09:14:18;;;;;;;6.82;4.07;;;9.40;99.90;;;;;;4377756;32;20085;-61
2021/11/09 09:16:46;;;;;;;5.68;3.90;;;9.70;99.90;;;;;;4378490;32;20061;-62
2021/11/09 09:19:19;;;;;;;5.30;3.47;;;9.60;99.90;;;;;;4377419;32;20070;-63
2021/11/09 09:21:51;;;;;;;8.07;4.37;;;9.50;99.90;;;;;;4377989;32;20455;-62
2021/11/09 09:24:41;;;;;;;5.12;3.65;;;9.60;99.90;;;;;;4378637;32;20065;-62
2021/11/09 09:30:04;;;;;;;8.43;3.75;;;9.60;99.90;;;;;;4390077;32;20089;-62
2021/11/09 09:57:22;;;;;;;5.60;3.28;;;9.70;99.90;;;;;;4391825;32;20571;-63
2021/11/09 09:59:48;;;;;;;7.03;3.17;;;9.60;99.90;;;;;;4390095;32;20520;-61
2021/11/09 10:02:28;;;;;;;4.82;3.12;;;9.60;99.90;;;;;;4352667;32;20098;-63
2021/11/09 10:05:11;;;;;;;9.82;3.40;;;9.50;99.90;;;;;;4377581;32;20074;-63
2021/11/09 10:07:43;;;;;;;5.12;3.17;;;9.70;99.90;;;;;;4377843;32;20523;-62
2021/11/09 10:10:10;;;;;;;3.92;2.40;;;9.70;99.90;;;;;;4389489;32;20501;-63
2021/11/09 10:12:40;;;;;;;4.90;2.97;;;9.60;99.90;;;;;;4390041;32;20069;-63
2021/11/09 10:15:10;;;;;;;6.62;3.00;;;9.50;99.90;;;;;;4377767;32;20231;-61
2021/11/09 10:17:39;;;;;;;5.30;3.40;;;9.50;99.90;;;;;;4365689;32;20081;-62
2021/11/09 10:20:18;;;;;;;7.07;3.80;;;9.50;99.90;;;;;;4377426;32;20085;-61
2021/11/09 10:22:57;;;;;;;5.07;3.33;;;9.40;99.90;;;;;;4364744;32;20543;-61
2021/11/09 10:25:23;;;;;;;5.53;3.42;;;9.30;99.90;;;;;;4390067;32;20098;-62
2021/11/09 10:27:55;;;;;;;8.32;3.83;;;9.20;99.90;;;;;;4389694;32;20092;-62
2021/11/09 10:30:33;;;;;;;7.22;3.62;;;9.10;99.90;;;;;;4364291;32;20085;-63
2021/11/09 10:32:59;;;;;;;8.73;4.12;;;9.10;99.90;;;;;;4384821;32;20089;-62
2021/11/09 10:35:26;;;;;;;6.12;4.35;;;9.20;99.90;;;;;;4400978;32;20065;-62
2021/11/09 10:37:55;;;;;;;6.18;3.87;;;9.20;99.90;;;;;;4391117;32;20456;-62
2021/11/09 10:40:27;;;;;;;6.53;3.67;;;9.50;99.90;;;;;;4375555;32;20087;-66
2021/11/09 10:42:58;;;;;;;6.70;3.70;;;9.40;99.90;;;;;;4388517;32;20092;-60
2021/11/09 10:45:27;;;;;;;8.63;3.75;;;9.20;99.90;;;;;;4362756;32;20078;-60
2021/11/09 10:48:00;;;;;;;5.45;3.12;;;9.50;99.90;;;;;;4379789;32;20093;-61
2021/11/09 10:50:29;;;;;;;7.65;4.18;;;9.80;99.90;;;;;;4371942;32;20108;-59
2021/11/09 10:53:21;;;;;;;7.87;3.92;;;9.40;99.90;;;;;;4368367;32;20073;-60
2021/11/09 10:56:26;;;;;;;6.22;3.62;;;9.20;99.90;;;;;;4381141;32;20472;-60
2021/11/09 11:04:10;;;;;;;7.28;4.25;;;9.40;99.90;;;;;;4373672;32;20189;-59
2021/11/09 11:06:39;;;;;;;6.68;4.18;;;9.20;99.90;;;;;;4368377;32;20082;-60
2021/11/09 11:09:14;;;;;;;6.37;4.10;;;9.30;99.90;;;;;;4381637;32;20077;-58
2021/11/09 11:11:51;;;;;;;6.40;3.53;;;9.30;99.90;;;;;;4393268;32;20066;-60
2021/11/09 11:14:26;;;;;;;8.85;4.55;;;9.20;99.90;;;;;;4383034;32;20093;-60
2021/11/09 11:16:56;;;;;;;8.00;4.32;;;9.20;99.90;;;;;;4364028;32;20077;-60
2021/11/09 11:19:33;;;;;;;8.13;3.95;;;9.20;99.90;;;;;;4392076;32;20088;-61
2021/11/09 11:22:06;;;;;;;7.35;3.92;;;9.10;99.90;;;;;;4363842;32;20165;-63
2021/11/09 11:24:33;;;;;;;6.05;4.25;;;9.20;99.90;;;;;;4372599;32;20268;-59
2021/11/09 11:27:00;;;;;;;7.10;4.53;;;9.20;99.90;;;;;;4369959;32;20128;-59
2021/11/09 11:29:32;;;;;;;6.93;3.75;;;9.20;99.90;;;;;;4373112;32;20181;-61
2021/11/09 11:32:00;;;;;;;6.20;3.90;;;9.10;99.90;;;;;;4374827;32;20073;-61
2021/11/09 11:34:27;;;;;;;8.75;4.18;;;9.10;99.90;;;;;;4381323;32;20182;-62
2021/11/09 11:36:54;;;;;;;7.57;4.68;;;9.10;99.90;;;;;;4371884;32;20156;-60
2021/11/09 11:39:22;;;;;;;8.35;3.85;;;9.00;99.90;;;;;;4387901;32;20092;-63
2021/11/09 11:41:52;;;;;;;6.50;4.30;;;9.10;99.90;;;;;;4365703;32;20117;-63
2021/11/09 11:44:27;;;;;;;7.53;3.83;;;9.10;99.90;;;;;;4378806;32;20081;-61
2021/11/09 11:47:18;;;;;;;6.12;3.60;;;9.10;99.90;;;;;;4380677;32;20085;-60
2021/11/09 11:49:53;;;;;;;5.87;3.65;;;9.10;99.90;;;;;;4391277;32;20190;-61
2021/11/09 11:52:22;;;;;;;6.10;3.40;;;9.10;99.90;;;;;;4364993;32;20429;-59
2021/11/09 11:55:04;;;;;;;6.32;3.72;;;9.10;99.90;;;;;;4370027;32;20062;-61
2021/11/09 11:57:41;;;;;;;9.55;4.00;;;9.20;99.90;;;;;;4361314;32;20586;-65
2021/11/09 12:00:32;;;;;;;6.15;3.72;;;9.20;99.90;;;;;;4390657;32;20089;-65
2021/11/09 12:03:00;;;;;;;6.82;3.15;;;9.20;99.90;;;;;;4374689;32;20104;-63
2021/11/09 12:05:43;;;;;;;6.00;3.20;;;9.10;99.90;;;;;;4385547;32;20567;-61
2021/11/09 12:08:11;;;;;;;12.02;4.10;;;9.00;99.90;;;;;;4383421;32;20217;-63
2021/11/09 12:10:49;;;;;;;7.37;4.07;;;9.00;99.90;;;;;;4386639;32;20116;-61
2021/11/09 12:13:17;;;;;;;7.95;3.70;;;9.00;99.90;;;;;;4394367;32;20497;-61
2021/11/09 12:16:10;;;;;;;6.82;3.33;;;8.90;99.90;;;;;;4385806;32;20140;-63
2021/11/09 12:18:38;;;;;;;6.72;2.97;;;8.90;99.90;;;;;;4373001;32;20086;-63
2021/11/09 12:21:18;;;;;;;7.28;3.33;;;8.90;99.90;;;;;;4372415;32;20154;-61
2021/11/09 12:24:26;;;;;;;5.97;3.40;;;8.90;99.90;;;;;;4400234;32;20085;-62
2021/11/09 12:26:58;;;;;;;7.25;3.72;;;8.90;99.90;;;;;;4384458;32;20501;-64
2021/11/09 12:29:40;;;;;;;8.73;4.03;;;8.90;99.90;;;;;;4373006;32;20108;-63
2021/11/09 12:32:42;;;;;;;6.28;4.07;;;8.90;99.90;;;;;;4385134;32;20066;-61
2021/11/09 12:35:17;;;;;;;9.45;3.47;;;8.80;99.90;;;;;;4374519;32;20077;-62
2021/11/09 12:38:04;;;;;;;7.45;3.67;;;8.80;99.90;;;;;;4384213;32;20163;-63
2021/11/09 12:40:35;;;;;;;4.97;2.90;;;8.80;99.90;;;;;;4366009;32;20227;-61
2021/11/09 12:43:14;;;;;;;3.12;2.10;;;8.50;99.90;;;;;;4377763;32;20181;-61
2021/11/09 12:46:11;;;;;;;4.87;2.15;;;8.10;99.90;;;;;;4400652;32;20084;-61
2021/11/09 12:51:36;;;;;;;3.67;2.40;;;7.60;99.90;;;;;;3825918;37;20048;-59
2021/11/09 12:54:11;;;;;;;4.62;2.03;;;7.20;99.90;;;;;;4351778;32;20085;-61
2021/11/09 12:56:38;;;;;;;2.45;1.73;;;7.00;99.90;;;;;;4343469;32;20182;-59
2021/11/09 13:00:07;;;;;;;3.35;2.00;;;6.90;99.90;;;;;;3821728;37;20055;-62
2021/11/09 13:02:40;;;;;;;;;;;6.80;99.90;;;;;;4418142;32;20066;-60
2021/11/09 13:05:12;;;;;;;2.87;1.75;;;6.70;99.90;;;;;;4391714;32;20033;-62
2021/11/09 13:07:40;;;;;;;2.35;1.70;;;6.70;99.90;;;;;;4389481;32;20054;-64
2021/11/09 13:10:20;;;;;;;2.67;1.75;;;6.70;99.90;;;;;;4410651;32;20073;-64
2021/11/09 13:12:50;;;;;;;3.47;2.12;;;6.70;99.90;;;;;;4379299;32;20157;-64
2021/11/09 13:15:21;;;;;;;2.95;1.75;;;6.80;99.90;;;;;;4377458;32;20096;-62
2021/11/09 13:17:53;;;;;;;2.30;1.90;;;6.80;99.90;;;;;;4376654;32;20156;-59
2021/11/09 13:22:59;;;;;;;2.50;1.95;;;6.90;99.90;;;;;;4378683;32;20153;-61
2021/11/09 13:25:33;;;;;;;3.92;2.50;;;7.00;99.90;;;;;;4383385;32;20142;-60
2021/11/09 13:28:04;;;;;;;4.05;2.10;;;6.90;99.90;;;;;;4374432;32;20101;-61
2021/11/09 13:30:30;;;;;;;3.10;2.10;;;6.80;99.90;;;;;;4361248;32;20097;-63
2021/11/09 13:32:58;;;;;;;4.32;2.55;;;6.80;99.90;;;;;;4374651;32;20097;-63
2021/11/09 13:35:30;;;;;;;4.65;2.85;;;6.90;99.90;;;;;;4375035;32;20069;-62
2021/11/09 13:38:15;;;;;;;5.60;3.37;;;6.90;99.90;;;;;;4374763;32;20507;-62
2021/11/09 13:40:59;;;;;;;7.57;2.42;;;7.00;99.90;;;;;;4375157;32;20067;-62
2021/11/09 13:43:37;;;;;;;4.18;2.72;;;7.20;99.90;;;;;;4340951;32;20515;-64
2021/11/09 13:46:16;;;;;;;5.47;3.40;;;7.20;99.90;;;;;;4351914;32;20457;-62
2021/11/09 13:49:00;;;;;;;7.50;3.72;;;7.20;99.90;;;;;;4338232;32;20074;-62
2021/11/09 13:51:35;;;;;;;7.53;3.55;;;7.30;99.90;;;;;;4351394;32;20074;-62
2021/11/09 13:54:05;;;;;;;6.82;3.05;;;7.20;99.90;;;;;;4351122;32;20077;-62
2021/11/09 13:56:31;;;;;;;5.80;3.22;;;7.30;99.90;;;;;;4350896;32;20062;-62
2021/11/09 13:59:10;;;;;;;8.27;3.37;;;7.30;99.90;;;;;;4374610;32;20085;-62
2021/11/09 14:15:41;;;;;;;4.57;2.10;;;7.30;99.90;;;;;;4365751;32;20086;-61
2021/11/09 14:17:45;;;;;;;5.82;2.58;;;7.30;99.90;;;;;;4372738;32;20585;-63
2021/11/09 14:20:25;;;;;;;4.97;2.22;;;7.30;99.90;;;;;;4352051;32;20070;-63
2021/11/09 14:23:04;;;;;;;7.72;2.60;;;7.30;99.90;;;;;;4365149;32;20077;-63
2021/11/09 14:25:31;;;;;;;4.93;2.10;;;7.30;99.90;;;;;;4340910;32;20144;-63
2021/11/09 14:27:57;;;;;;;5.10;2.50;;;7.30;99.90;;;;;;4328042;32;20086;-62
2021/11/09 14:30:26;;;;;;;5.50;2.35;;;7.20;99.90;;;;;;4364327;32;20065;-63
2021/11/09 14:33:16;;;;;;;6.12;2.22;;;7.20;99.90;;;;;;4352220;32;20527;-64
2021/11/09 14:35:43;;;;;;;12.52;2.50;;;7.10;99.90;;;;;;4364596;32;20504;-61
2021/11/09 14:38:14;;;;;;;6.07;2.78;;;7.20;99.90;;;;;;4376748;32;20163;-63
2021/11/09 14:40:57;;;;;;;6.03;2.47;;;7.20;99.90;;;;;;4353217;32;20100;-66
2021/11/09 14:43:38;;;;;;;7.32;2.55;;;7.30;99.90;;;;;;4343089;32;20078;-63
2021/11/09 14:46:14;;;;;;;5.03;2.65;;;7.10;99.90;;;;;;4353560;32;20078;-62
2021/11/09 14:51:18;;;;;;;3.60;2.47;;;7.20;99.90;;;;;;4339191;32;20255;-62
2021/11/09 14:56:23;;;;;;;10.52;4.18;;;7.10;99.90;;;;;;4352219;32;20551;-63
2021/11/09 14:58:49;;;;;;;7.72;3.00;;;7.10;99.90;;;;;;4340041;32;20082;-62
2021/11/09 15:01:25;;;;;;;4.82;2.97;;;7.10;99.90;;;;;;4363720;32;20523;-62
2021/11/09 15:03:56;;;;;;;5.45;3.00;;;7.10;99.90;;;;;;4364228;32;20083;-62
2021/11/09 15:06:32;;;;;;;7.22;3.15;;;7.00;99.90;;;;;;4339673;32;20093;-62
2021/11/09 15:09:16;;;;;;;5.32;3.00;;;7.00;99.90;;;;;;4353493;32;20101;-62
2021/11/09 15:25:42;;;;;;;4.82;2.55;;;6.80;99.90;;;;;;4365969;32;20436;-62
2021/11/09 15:28:19;;;;;;;4.95;2.53;;;6.80;99.90;;;;;;4366304;32;20173;-61
2021/11/09 15:31:03;;;;;;;3.35;2.42;;;6.70;99.90;;;;;;4329924;32;20081;-61
2021/11/09 15:36:25;;;;;;;5.68;3.05;;;6.70;99.90;;;;;;4366924;32;20078;-62
2021/11/09 15:38:51;;;;;;;3.60;2.58;;;6.70;99.90;;;;;;4355084;32;20078;-64
2021/11/09 15:41:18;;;;;;;6.05;3.10;;;6.80;99.90;;;;;;4326955;32;20112;-63
2021/11/09 15:43:44;;;;;;;5.55;3.00;;;6.80;99.90;;;;;;4338402;32;20494;-64
2021/11/09 15:46:11;;;;;;;5.60;3.10;;;6.80;99.90;;;;;;4350991;32;20163;-63
2021/11/09 15:48:37;;;;;;;4.22;2.80;;;6.80;99.90;;;;;;4338282;32;20553;-61
2021/11/09 15:51:04;;;;;;;6.07;3.30;;;6.70;99.90;;;;;;4363200;32;20527;-63
2021/11/09 15:53:31;;;;;;;6.85;2.97;;;6.70;99.90;;;;;;4326543;32;20086;-63
2021/11/09 15:55:58;;;;;;;5.53;3.10;;;6.60;99.90;;;;;;4326113;32;20550;-63
2021/11/09 15:58:25;;;;;;;4.00;3.00;;;6.70;99.90;;;;;;4350322;32;20093;-63
2021/11/09 16:00:53;;;;;;;8.88;3.22;;;6.70;99.90;;;;;;4350732;32;20410;-61
2021/11/09 16:03:19;;;;;;;4.87;3.22;;;6.70;99.90;;;;;;4339035;32;20154;-63
2021/11/09 16:05:51;;;;;;;7.53;3.37;;;6.70;99.90;;;;;;4350532;32;20156;-60
2021/11/09 16:08:17;;;;;;;6.68;3.67;;;6.70;99.90;;;;;;4352009;32;20083;-63
2021/11/09 16:10:43;;;;;;;5.30;3.37;;;6.70;99.90;;;;;;4363256;32;20174;-62
2021/11/09 16:13:10;;;;;;;6.95;3.67;;;6.70;99.90;;;;;;4377156;32;20084;-63
2021/11/09 16:15:36;;;;;;;5.45;3.60;;;6.70;99.90;;;;;;4365356;32;20131;-62